Time;durP1;ratioP1;P1;durP2;ratioP2;P2;SDS_P1;SDS_P2;PMS_P1;PMS_P2;Temp;Humidity;BMP_temperature;BMP_pressure;BME280_temperature;BME280_humidity;BME280_pressure;Samples;Min_cycle;Max_cycle;Signal;HPM_P1;HPM_P2
2022/05/15 00:02:16;;;;;;;7.05;4.85;;;;;;;;;;5053235;28;20048;-51
2022/05/15 00:04:42;;;;;;;9.55;3.55;;;;;;;;;;5054720;28;20021;-51
2022/05/15 00:07:13;;;;;;;7.97;3.00;;;;;;;;;;5054562;28;20029;-51
2022/05/15 00:09:42;;;;;;;10.02;3.58;;;;;;;;;;5054573;28;20040;-51
2022/05/15 00:12:08;;;;;;;7.35;2.97;;;;;;;;;;5055009;28;20051;-50
2022/05/15 00:14:35;;;;;;;21.77;3.20;;;;;;;;;;5054830;28;20052;-52
2022/05/15 00:17:01;;;;;;;11.48;3.38;;;;;;;;;;5054651;28;20074;-52
2022/05/15 00:19:27;;;;;;;31.30;16.67;;;;;;;;;;5054604;28;20057;-51
2022/05/15 00:21:54;;;;;;;13.00;5.55;;;;;;;;;;5054145;28;20064;-51
2022/05/15 00:24:20;;;;;;;8.40;3.42;;;;;;;;;;5054526;28;20035;-51
2022/05/15 00:26:47;;;;;;;7.30;3.50;;;;;;;;;;5054417;28;20017;-51
2022/05/15 00:29:13;;;;;;;7.93;2.65;;;;;;;;;;5054363;28;20448;-51
2022/05/15 00:31:41;;;;;;;5.65;2.70;;;;;;;;;;5054380;28;20021;-53
2022/05/15 00:34:07;;;;;;;4.53;2.45;;;;;;;;;;5054294;28;20100;-50
2022/05/15 00:36:34;;;;;;;5.88;2.83;;;;;;;;;;5053939;28;20029;-52
2022/05/15 00:39:00;;;;;;;7.82;3.10;;;;;;;;;;5054285;28;20104;-51
2022/05/15 00:41:26;;;;;;;8.02;3.47;;;;;;;;;;5054254;28;20104;-50
2022/05/15 00:43:54;;;;;;;12.88;3.83;;;;;;;;;;5054281;28;20087;-51
2022/05/15 00:46:22;;;;;;;10.07;4.97;;;;;;;;;;5054117;28;20025;-49
2022/05/15 00:48:49;;;;;;;9.27;3.58;;;;;;;;;;5053874;28;20024;-52
2022/05/15 00:51:17;;;;;;;7.18;3.08;;;;;;;;;;5053591;28;20052;-50
2022/05/15 00:53:44;;;;;;;7.57;2.67;;;;;;;;;;5053862;28;20115;-50
2022/05/15 00:56:12;;;;;;;10.73;3.33;;;;;;;;;;5054099;28;20044;-47
2022/05/15 00:58:43;;;;;;;9.05;3.08;;;;;;;;;;5053732;28;20526;-49
2022/05/15 01:01:09;;;;;;;5.30;3.10;;;;;;;;;;5064220;28;20024;-49
2022/05/15 01:03:35;;;;;;;8.13;2.80;;;;;;;;;;5073851;28;20060;-57
2022/05/15 01:06:01;;;;;;;6.40;3.17;;;;;;;;;;5073511;28;20039;-60
2022/05/15 01:08:32;;;;;;;8.85;3.05;;;;;;;;;;5073849;28;20047;-56
2022/05/15 01:11:01;;;;;;;6.38;2.90;;;;;;;;;;5073699;28;20047;-57
2022/05/15 01:13:28;;;;;;;4.93;2.78;;;;;;;;;;5073648;28;20021;-54
2022/05/15 01:15:54;;;;;;;5.95;2.38;;;;;;;;;;5073502;28;20027;-54
2022/05/15 01:18:22;;;;;;;6.88;2.80;;;;;;;;;;5073405;28;20036;-63
2022/05/15 01:20:48;;;;;;;7.57;3.30;;;;;;;;;;5073099;28;20423;-47
2022/05/15 01:23:15;;;;;;;4.82;3.08;;;;;;;;;;5073646;28;20032;-48
2022/05/15 01:25:41;;;;;;;5.22;2.75;;;;;;;;;;5073579;28;20029;-48
2022/05/15 01:28:09;;;;;;;7.63;4.35;;;;;;;;;;5073460;28;20020;-48
2022/05/15 01:30:36;;;;;;;8.43;4.03;;;;;;;;;;5073441;28;20476;-47
2022/05/15 01:33:03;;;;;;;8.15;4.10;;;;;;;;;;5073349;28;20029;-55
2022/05/15 01:35:29;;;;;;;17.27;5.88;;;;;;;;;;5073073;28;20046;-58
2022/05/15 01:37:58;;;;;;;11.13;5.88;;;;;;;;;;5073449;28;20032;-51
2022/05/15 01:40:24;;;;;;;13.88;6.03;;;;;;;;;;5073486;28;20485;-50
2022/05/15 01:42:50;;;;;;;14.32;5.93;;;;;;;;;;5073526;28;20016;-47
2022/05/15 01:45:18;;;;;;;18.80;5.90;;;;;;;;;;5055671;28;20016;-53
2022/05/15 01:47:45;;;;;;;12.23;6.65;;;;;;;;;;5057137;28;20040;-47
2022/05/15 01:50:11;;;;;;;11.73;5.32;;;;;;;;;;5077134;28;20075;-48
2022/05/15 01:52:38;;;;;;;15.00;6.32;;;;;;;;;;5077519;28;20082;-48
2022/05/15 01:55:04;;;;;;;12.27;5.65;;;;;;;;;;5077511;28;20023;-48
2022/05/15 01:57:30;;;;;;;13.57;5.50;;;;;;;;;;5077383;28;20112;-48
2022/05/15 01:59:56;;;;;;;14.50;5.25;;;;;;;;;;5077099;28;20028;-48
2022/05/15 02:02:22;;;;;;;13.02;5.80;;;;;;;;;;5077142;28;20494;-55
2022/05/15 02:04:49;;;;;;;15.90;6.35;;;;;;;;;;5077148;28;20234;-47
2022/05/15 02:07:15;;;;;;;14.77;6.22;;;;;;;;;;5077213;28;20024;-48
2022/05/15 02:09:41;;;;;;;13.30;5.72;;;;;;;;;;5076910;28;20068;-48
2022/05/15 02:12:09;;;;;;;12.73;5.55;;;;;;;;;;5077035;28;20464;-62
2022/05/15 02:14:35;;;;;;;15.10;5.47;;;;;;;;;;5076979;28;20029;-48
2022/05/15 02:17:02;;;;;;;20.20;6.57;;;;;;;;;;5076845;28;20561;-49
2022/05/15 02:19:28;;;;;;;12.88;5.32;;;;;;;;;;5076750;28;20025;-48
2022/05/15 02:21:56;;;;;;;10.52;4.88;;;;;;;;;;5076446;28;20104;-48
2022/05/15 02:24:22;;;;;;;17.20;5.97;;;;;;;;;;5076839;28;20028;-64
2022/05/15 02:26:49;;;;;;;14.75;5.80;;;;;;;;;;5076705;28;20031;-64
2022/05/15 02:29:15;;;;;;;12.38;5.53;;;;;;;;;;5076642;28;20046;-57
2022/05/15 02:31:43;;;;;;;14.32;5.30;;;;;;;;;;5076770;28;20107;-65
2022/05/15 02:34:09;;;;;;;10.18;4.82;;;;;;;;;;5076432;28;20137;-65
2022/05/15 02:36:35;;;;;;;13.98;4.72;;;;;;;;;;5076765;28;20074;-48
2022/05/15 02:39:01;;;;;;;12.50;4.53;;;;;;;;;;5076367;28;20119;-48
2022/05/15 02:41:28;;;;;;;12.00;4.95;;;;;;;;;;5076472;28;20029;-50
2022/05/15 02:43:54;;;;;;;11.60;4.45;;;;;;;;;;5076410;28;20027;-50
2022/05/15 02:46:21;;;;;;;11.63;5.25;;;;;;;;;;5076240;28;20029;-49
2022/05/15 02:51:31;;;;;;;11.40;4.93;;;;;;;;;;5076019;28;20124;-50
2022/05/15 02:53:58;;;;;;;11.60;5.18;;;;;;;;;;5076377;28;20544;-51
2022/05/15 02:56:29;;;;;;;14.38;5.32;;;;;;;;;;5076296;28;20385;-49
2022/05/15 02:58:55;;;;;;;12.85;5.25;;;;;;;;;;5074655;28;20032;-50
2022/05/15 03:01:21;;;;;;;11.05;5.40;;;;;;;;;;5058003;28;20063;-47
2022/05/15 03:03:48;;;;;;;10.10;4.57;;;;;;;;;;5076002;28;20040;-48
2022/05/15 03:06:14;;;;;;;12.05;4.85;;;;;;;;;;5075877;28;20056;-66
2022/05/15 03:08:42;;;;;;;12.00;4.60;;;;;;;;;;5076003;28;20491;-60
2022/05/15 03:11:09;;;;;;;10.70;4.22;;;;;;;;;;5075781;28;20041;-47
2022/05/15 03:13:35;;;;;;;11.82;4.85;;;;;;;;;;5075845;28;20037;-60
2022/05/15 03:16:02;;;;;;;17.23;5.03;;;;;;;;;;5075672;28;20103;-50
2022/05/15 03:18:28;;;;;;;10.73;4.68;;;;;;;;;;5075509;28;20029;-49
2022/05/15 03:20:54;;;;;;;16.63;4.85;;;;;;;;;;5075622;28;20035;-51
2022/05/15 03:23:20;;;;;;;8.88;4.50;;;;;;;;;;5075580;28;20533;-47
2022/05/15 03:25:46;;;;;;;13.32;5.18;;;;;;;;;;5075573;28;20082;-49
2022/05/15 03:28:13;;;;;;;13.98;4.40;;;;;;;;;;5075447;28;20575;-48
2022/05/15 03:30:40;;;;;;;11.27;5.18;;;;;;;;;;5075598;28;20027;-48
2022/05/15 03:33:08;;;;;;;10.02;4.18;;;;;;;;;;5076084;28;20021;-48
2022/05/15 03:35:35;;;;;;;11.20;4.88;;;;;;;;;;5075819;28;20095;-54
2022/05/15 03:38:01;;;;;;;17.50;5.15;;;;;;;;;;5075183;28;20040;-47
2022/05/15 03:40:28;;;;;;;16.13;5.72;;;;;;;;;;5057611;28;20016;-64
2022/05/15 03:42:54;;;;;;;13.48;4.63;;;;;;;;;;5075506;28;20031;-51
2022/05/15 03:45:20;;;;;;;10.15;5.03;;;;;;;;;;5075261;28;20033;-47
2022/05/15 03:47:51;;;;;;;16.23;5.47;;;;;;;;;;5074974;28;20498;-48
2022/05/15 03:50:18;;;;;;;9.00;4.53;;;;;;;;;;5075154;28;20058;-47
2022/05/15 03:52:44;;;;;;;14.75;5.07;;;;;;;;;;5074892;28;20388;-65
2022/05/15 03:55:10;;;;;;;8.48;4.75;;;;;;;;;;5075319;28;20032;-48
2022/05/15 03:57:37;;;;;;;15.40;4.53;;;;;;;;;;5074978;28;20120;-48
2022/05/15 04:00:04;;;;;;;10.30;4.60;;;;;;;;;;5074901;28;20059;-48
2022/05/15 04:02:30;;;;;;;10.05;3.50;;;;;;;;;;5075007;28;20060;-47
2022/05/15 04:04:56;;;;;;;7.43;3.80;;;;;;;;;;5074791;28;20056;-48
2022/05/15 04:07:22;;;;;;;5.97;3.47;;;;;;;;;;5074826;28;20021;-47
2022/05/15 04:09:51;;;;;;;6.20;3.38;;;;;;;;;;5074103;28;20040;-57
2022/05/15 04:12:18;;;;;;;5.47;3.10;;;;;;;;;;5074799;28;20066;-61
2022/05/15 04:14:44;;;;;;;12.05;3.60;;;;;;;;;;5074588;28;20094;-55
2022/05/15 04:17:11;;;;;;;8.60;3.65;;;;;;;;;;5056522;28;20518;-52
2022/05/15 04:19:38;;;;;;;7.22;3.22;;;;;;;;;;5074742;28;20020;-58
2022/05/15 04:22:05;;;;;;;8.35;3.60;;;;;;;;;;5074300;28;20036;-63
2022/05/15 04:24:35;;;;;;;3.53;2.78;;;;;;;;;;5074791;28;20020;-48
2022/05/15 04:27:01;;;;;;;6.88;2.92;;;;;;;;;;5074470;28;20484;-50
2022/05/15 04:29:28;;;;;;;5.25;3.20;;;;;;;;;;5074392;28;20032;-51
2022/05/15 04:31:55;;;;;;;5.20;3.08;;;;;;;;;;5074218;28;20028;-49
2022/05/15 04:34:22;;;;;;;8.18;3.65;;;;;;;;;;5074620;28;20048;-52
2022/05/15 04:36:48;;;;;;;9.40;3.42;;;;;;;;;;5074088;28;20032;-59
2022/05/15 04:39:15;;;;;;;8.68;3.42;;;;;;;;;;5074285;28;20067;-54
2022/05/15 04:41:41;;;;;;;8.23;3.58;;;;;;;;;;5074192;28;20021;-52
2022/05/15 04:44:08;;;;;;;5.88;4.70;;;;;;;;;;5074142;28;20024;-48
2022/05/15 04:46:34;;;;;;;9.27;4.78;;;;;;;;;;5073985;28;20059;-50
2022/05/15 04:49:00;;;;;;;6.65;4.30;;;;;;;;;;5074165;28;20020;-60
2022/05/15 04:51:26;;;;;;;7.05;4.28;;;;;;;;;;5073619;28;20029;-54
2022/05/15 04:53:53;;;;;;;5.97;3.95;;;;;;;;;;5073853;28;20036;-57
2022/05/15 04:56:19;;;;;;;9.75;4.03;;;;;;;;;;5074024;28;20032;-64
2022/05/15 04:58:46;;;;;;;6.97;4.25;;;;;;;;;;5073856;28;20150;-56
2022/05/15 05:01:13;;;;;;;7.45;3.45;;;;;;;;;;5073986;28;20047;-54
2022/05/15 05:03:39;;;;;;;9.23;4.43;;;;;;;;;;5073722;28;20099;-57
2022/05/15 05:06:05;;;;;;;8.77;3.65;;;;;;;;;;5073800;28;20098;-60
2022/05/15 05:08:31;;;;;;;7.00;3.50;;;;;;;;;;5073799;28;20095;-60
2022/05/15 05:10:57;;;;;;;7.65;4.07;;;;;;;;;;5073588;28;20111;-60
2022/05/15 05:13:27;;;;;;;7.38;4.18;;;;;;;;;;5073723;28;20024;-60
2022/05/15 05:15:53;;;;;;;8.85;4.13;;;;;;;;;;5073654;28;20539;-54
2022/05/15 05:18:19;;;;;;;9.55;4.20;;;;;;;;;;5073762;28;20110;-60
2022/05/15 05:20:46;;;;;;;8.35;4.20;;;;;;;;;;5073446;28;20055;-51
2022/05/15 05:23:13;;;;;;;10.10;4.57;;;;;;;;;;5072726;28;20043;-55
2022/05/15 05:25:39;;;;;;;9.30;4.47;;;;;;;;;;5073607;28;20120;-58
2022/05/15 05:28:05;;;;;;;8.95;4.20;;;;;;;;;;5073583;28;20028;-61
2022/05/15 05:30:32;;;;;;;8.38;3.97;;;;;;;;;;5073578;28;20013;-54
2022/05/15 05:32:58;;;;;;;11.77;4.78;;;;;;;;;;5073325;28;20020;-55
2022/05/15 05:35:25;;;;;;;8.60;4.10;;;;;;;;;;5055307;28;20033;-54
2022/05/15 05:37:52;;;;;;;9.75;4.00;;;;;;;;;;5073317;28;20032;-51
2022/05/15 05:40:20;;;;;;;10.23;4.40;;;;;;;;;;5073405;28;20059;-59
2022/05/15 05:42:47;;;;;;;8.85;3.70;;;;;;;;;;5073360;28;20145;-54
2022/05/15 05:45:13;;;;;;;7.70;3.30;;;;;;;;;;5073134;28;20112;-50
2022/05/15 05:47:39;;;;;;;6.55;3.70;;;;;;;;;;5073269;28;20066;-53
2022/05/15 05:50:08;;;;;;;8.10;3.72;;;;;;;;;;5073183;28;20024;-59
2022/05/15 05:52:35;;;;;;;5.75;3.25;;;;;;;;;;5073230;28;20028;-49
2022/05/15 05:55:01;;;;;;;7.35;3.00;;;;;;;;;;5073073;28;20049;-50
2022/05/15 05:57:27;;;;;;;5.80;2.90;;;;;;;;;;5073214;28;20022;-48
2022/05/15 05:59:53;;;;;;;5.93;2.63;;;;;;;;;;5073125;28;20041;-57
2022/05/15 06:02:20;;;;;;;7.95;2.25;;;;;;;;;;5073113;28;20021;-50
2022/05/15 06:04:46;;;;;;;4.78;2.47;;;;;;;;;;5073030;28;20039;-50
2022/05/15 06:07:17;;;;;;;7.28;2.20;;;;;;;;;;5072889;28;20117;-50
2022/05/15 06:09:45;;;;;;;6.05;2.60;;;;;;;;;;5073037;28;20041;-48
2022/05/15 06:12:12;;;;;;;4.10;2.25;;;;;;;;;;5073203;28;20099;-59
2022/05/15 06:14:38;;;;;;;5.60;2.22;;;;;;;;;;5073038;28;20025;-48
2022/05/15 06:17:04;;;;;;;3.38;1.95;;;;;;;;;;5072695;28;20021;-60
2022/05/15 06:19:31;;;;;;;3.42;1.80;;;;;;;;;;5072822;28;20392;-48
2022/05/15 06:21:57;;;;;;;7.53;2.38;;;;;;;;;;5072830;28;20028;-61
2022/05/15 06:24:25;;;;;;;6.00;2.30;;;;;;;;;;5072670;28;20029;-50
2022/05/15 06:26:51;;;;;;;6.97;2.20;;;;;;;;;;5072926;28;20020;-61
2022/05/15 06:29:17;;;;;;;3.35;2.20;;;;;;;;;;5072830;28;20104;-61
2022/05/15 06:31:43;;;;;;;2.92;1.77;;;;;;;;;;5072652;28;20116;-57
2022/05/15 06:34:09;;;;;;;3.72;2.20;;;;;;;;;;5075446;28;20372;-59
2022/05/15 06:36:36;;;;;;;2.67;1.92;;;;;;;;;;5076526;28;20016;-62
2022/05/15 06:39:02;;;;;;;3.72;1.73;;;;;;;;;;5076424;28;20040;-49
2022/05/15 06:41:28;;;;;;;2.10;1.55;;;;;;;;;;5076605;28;20490;-49
2022/05/15 06:43:54;;;;;;;6.43;2.10;;;;;;;;;;5076412;28;20024;-51
2022/05/15 06:46:21;;;;;;;3.50;1.70;;;;;;;;;;5076194;28;20021;-62
2022/05/15 06:48:47;;;;;;;3.95;1.60;;;;;;;;;;5076214;28;20032;-48
2022/05/15 06:51:16;;;;;;;4.10;1.60;;;;;;;;;;5076101;28;20103;-53
2022/05/15 06:53:42;;;;;;;5.15;1.75;;;;;;;;;;5058040;28;20194;-48
2022/05/15 06:58:56;;;;;;;3.95;1.60;;;;;;;;;;5075990;28;20089;-48
2022/05/15 07:01:22;;;;;;;4.50;2.00;;;;;;;;;;5076054;28;20481;-50
2022/05/15 07:03:48;;;;;;;4.18;1.50;;;;;;;;;;5075991;28;20103;-62
2022/05/15 07:06:15;;;;;;;3.10;1.38;;;;;;;;;;5076116;28;20025;-61
2022/05/15 07:08:41;;;;;;;3.97;1.45;;;;;;;;;;5075931;28;20021;-59
2022/05/15 07:11:08;;;;;;;2.13;1.40;;;;;;;;;;5075718;28;20036;-61
2022/05/15 07:13:34;;;;;;;4.03;1.40;;;;;;;;;;5075778;28;20029;-62
2022/05/15 07:16:00;;;;;;;4.82;1.38;;;;;;;;;;5075971;28;20430;-59
2022/05/15 07:18:26;;;;;;;4.97;1.88;;;;;;;;;;5075517;28;20063;-48
2022/05/15 07:20:53;;;;;;;6.07;1.58;;;;;;;;;;5075851;28;20441;-48
2022/05/15 07:23:20;;;;;;;5.15;1.75;;;;;;;;;;5075597;28;20028;-61
2022/05/15 07:25:46;;;;;;;6.20;1.75;;;;;;;;;;5075633;28;20028;-59
2022/05/15 07:28:12;;;;;;;3.20;1.60;;;;;;;;;;5075668;28;20082;-50
2022/05/15 07:30:38;;;;;;;5.30;1.92;;;;;;;;;;5075301;28;20024;-51
2022/05/15 07:33:06;;;;;;;2.50;1.30;;;;;;;;;;5075377;28;20430;-54
2022/05/15 07:35:33;;;;;;;16.15;2.65;;;;;;;;;;5075531;28;20028;-48
2022/05/15 07:37:59;;;;;;;6.15;1.73;;;;;;;;;;5075231;28;20068;-49
2022/05/15 07:40:25;;;;;;;4.38;1.40;;;;;;;;;;5075223;28;20027;-59
2022/05/15 07:42:52;;;;;;;3.97;1.50;;;;;;;;;;5075336;28;20021;-52
2022/05/15 07:45:18;;;;;;;4.43;1.88;;;;;;;;;;5074560;28;20082;-49
2022/05/15 07:47:44;;;;;;;3.50;1.80;;;;;;;;;;5075467;28;20021;-55
2022/05/15 07:50:10;;;;;;;7.85;2.67;;;;;;;;;;5075093;28;20020;-59
2022/05/15 07:52:37;;;;;;;7.10;1.92;;;;;;;;;;5075453;28;20077;-54
2022/05/15 07:55:05;;;;;;;2.97;1.52;;;;;;;;;;5075075;28;20028;-59
2022/05/15 07:57:33;;;;;;;4.25;1.88;;;;;;;;;;5074963;28;20146;-59
2022/05/15 08:00:00;;;;;;;6.72;1.15;;;;;;;;;;5075305;28;20024;-59
2022/05/15 08:02:26;;;;;;;3.38;1.58;;;;;;;;;;5074961;28;20031;-61
2022/05/15 08:10:21;;;;;;;2.97;1.50;;;;;;;;;;5074753;28;20065;-59
2022/05/15 08:12:47;;;;;;;6.38;1.80;;;;;;;;;;5075156;28;20020;-59
2022/05/15 08:15:13;;;;;;;16.35;9.38;;;;;;;;;;5074691;28;20032;-59
2022/05/15 08:17:39;;;;;;;15.07;7.70;;;;;;;;;;5074669;28;20040;-60
2022/05/15 08:25:44;;;;;;;15.20;7.30;;;;;;;;;;5074528;28;20156;-61
2022/05/15 08:28:10;;;;;;;6.82;3.60;;;;;;;;;;5074624;28;20434;-59
2022/05/15 08:30:37;;;;;;;7.97;3.30;;;;;;;;;;5074520;28;20456;-50
2022/05/15 08:33:03;;;;;;;4.85;2.05;;;;;;;;;;5074222;28;20090;-49
2022/05/15 08:35:30;;;;;;;5.82;1.40;;;;;;;;;;5074196;28;20430;-47
2022/05/15 08:37:56;;;;;;;5.68;1.83;;;;;;;;;;5074064;28;20033;-47
2022/05/15 08:40:25;;;;;;;4.47;1.92;;;;;;;;;;5074311;28;20380;-51
2022/05/15 08:42:55;;;;;;;4.68;2.38;;;;;;;;;;5074211;28;20024;-46
2022/05/15 08:45:23;;;;;;;3.60;1.67;;;;;;;;;;5073987;28;20481;-47
2022/05/15 08:47:52;;;;;;;2.97;1.30;;;;;;;;;;5073919;28;20520;-48
2022/05/15 08:50:20;;;;;;;5.30;1.60;;;;;;;;;;5073793;28;20066;-48
2022/05/15 08:52:55;;;;;;;2.03;1.30;;;;;;;;;;5073796;28;20035;-48
2022/05/15 08:55:26;;;;;;;11.48;5.07;;;;;;;;;;5073712;28;20055;-49
2022/05/15 08:57:56;;;;;;;18.95;11.82;;;;;;;;;;5073790;28;20032;-50
2022/05/15 09:00:42;;;;;;;25.92;18.33;;;;;;;;;;5073887;28;20020;-47
2022/05/15 09:03:14;;;;;;;15.63;8.63;;;;;;;;;;5073693;28;20144;-47
2022/05/15 09:05:51;;;;;;;16.63;11.82;;;;;;;;;;5061483;28;20046;-49
2022/05/15 09:08:20;;;;;;;59.30;33.33;;;;;;;;;;5051824;28;20009;-49
2022/05/15 09:10:50;;;;;;;34.88;15.60;;;;;;;;;;5052912;28;20045;-60
2022/05/15 09:13:25;;;;;;;40.15;25.65;;;;;;;;;;5052851;28;20021;-49
2022/05/15 09:15:57;;;;;;;35.35;24.77;;;;;;;;;;5053216;28;20017;-62
2022/05/15 09:18:24;;;;;;;51.72;19.92;;;;;;;;;;5052974;28;20033;-50
2022/05/15 09:20:54;;;;;;;77.38;46.15;;;;;;;;;;5052968;28;20031;-51
2022/05/15 09:23:23;;;;;;;45.22;28.90;;;;;;;;;;5052712;28;20029;-50
2022/05/15 09:25:54;;;;;;;25.35;12.32;;;;;;;;;;5052587;28;20017;-51
2022/05/15 09:28:20;;;;;;;22.10;14.15;;;;;;;;;;5050852;28;20526;-49
2022/05/15 09:30:48;;;;;;;60.63;39.22;;;;;;;;;;5052778;28;20025;-53
2022/05/15 09:33:26;;;;;;;33.13;22.98;;;;;;;;;;5052767;28;20017;-49
2022/05/15 09:36:12;;;;;;;30.23;19.48;;;;;;;;;;5051149;28;20531;-57
2022/05/15 09:38:38;;;;;;;33.15;17.67;;;;;;;;;;5051701;28;20033;-49
2022/05/15 09:44:34;;;;;;;32.70;17.95;;;;;;;;;;4952866;28;20078;-49
2022/05/15 09:47:14;;;;;;;25.25;11.05;;;;;;;;;;4952738;28;20023;-57
2022/05/15 09:49:40;;;;;;;;;;;;;;;;;;4953024;29;20037;-50
2022/05/15 09:52:17;;;;;;;9.00;4.53;;;;;;;;;;4952754;28;20025;-52
2022/05/15 09:54:45;;;;;;;13.30;3.17;;;;;;;;;;4952582;29;20114;-48
2022/05/15 09:57:16;;;;;;;15.38;3.42;;;;;;;;;;4952754;29;20062;-49
2022/05/15 09:59:43;;;;;;;13.25;2.42;;;;;;;;;;4953283;29;20039;-48
2022/05/15 10:02:20;;;;;;;3.95;1.55;;;;;;;;;;4953363;29;20063;-50
2022/05/15 10:04:48;;;;;;;4.55;1.83;;;;;;;;;;4952723;28;20051;-47
2022/05/15 10:07:29;;;;;;;4.80;1.40;;;;;;;;;;4952460;28;20039;-49
2022/05/15 10:09:56;;;;;;;15.05;2.00;;;;;;;;;;4955551;28;20051;-48
2022/05/15 10:12:27;;;;;;;4.38;1.20;;;;;;;;;;4956304;29;20028;-51
2022/05/15 10:15:07;;;;;;;3.25;1.55;;;;;;;;;;4956075;28;20039;-51
2022/05/15 10:17:34;;;;;;;3.08;1.25;;;;;;;;;;4956357;28;20051;-49
2022/05/15 10:20:05;;;;;;;5.07;1.60;;;;;;;;;;4990407;28;20068;-49
2022/05/15 10:22:53;;;;;;;12.30;2.08;;;;;;;;;;5056378;28;20079;-50
2022/05/15 10:25:26;;;;;;;5.20;2.63;;;;;;;;;;5056608;28;20025;-52
2022/05/15 10:27:58;;;;;;;9.60;1.85;;;;;;;;;;5056833;28;20039;-57
2022/05/15 10:30:32;;;;;;;6.38;1.88;;;;;;;;;;5056819;28;20021;-53
2022/05/15 10:33:00;;;;;;;6.97;1.17;;;;;;;;;;5056049;28;20035;-49
2022/05/15 10:35:45;;;;;;;16.60;10.82;;;;;;;;;;5055804;28;20031;-57
2022/05/15 10:38:17;;;;;;;32.78;23.08;;;;;;;;;;5055365;28;20036;-55
2022/05/15 10:41:09;;;;;;;21.55;11.65;;;;;;;;;;5052398;28;20045;-49
2022/05/15 10:43:53;;;;;;;21.35;11.40;;;;;;;;;;4952555;28;20086;-50
2022/05/15 10:46:25;;;;;;;9.20;3.53;;;;;;;;;;4960370;28;20112;-49
2022/05/15 10:49:09;;;;;;;11.27;4.45;;;;;;;;;;4956053;29;20049;-53
2022/05/15 10:51:45;;;;;;;6.90;4.15;;;;;;;;;;4955960;29;20035;-53
2022/05/15 10:57:21;;;;;;;8.93;4.03;;;;;;;;;;4956313;29;20026;-53
2022/05/15 11:00:06;;;;;;;8.45;3.78;;;;;;;;;;4955953;29;20432;-52
2022/05/15 11:02:32;;;;;;;14.30;2.50;;;;;;;;;;4955992;29;20042;-53
2022/05/15 11:05:07;;;;;;;6.35;3.50;;;;;;;;;;4955723;29;20054;-52
2022/05/15 11:07:33;;;;;;;89.75;52.75;;;;;;;;;;4955811;29;20484;-52
2022/05/15 11:10:01;;;;;;;16.30;8.23;;;;;;;;;;4955509;29;20063;-53
2022/05/15 11:12:47;;;;;;;43.78;28.27;;;;;;;;;;4955841;29;20038;-54
2022/05/15 11:15:13;;;;;;;11.80;7.55;;;;;;;;;;4955450;29;20043;-53
2022/05/15 11:17:39;;;;;;;30.13;19.58;;;;;;;;;;4955511;29;20042;-54
2022/05/15 11:20:15;;;;;;;10.70;5.50;;;;;;;;;;4979333;28;20029;-53
2022/05/15 11:22:45;;;;;;;21.52;10.32;;;;;;;;;;5035820;28;20030;-53
2022/05/15 11:25:21;;;;;;;29.55;9.38;;;;;;;;;;5035613;28;20021;-53
2022/05/15 11:27:55;;;;;;;11.45;4.25;;;;;;;;;;5035520;28;20032;-52
2022/05/15 11:30:30;;;;;;;6.40;2.88;;;;;;;;;;5047336;28;20035;-54
2022/05/15 11:33:03;;;;;;;2.65;1.60;;;;;;;;;;5051468;28;20017;-54
2022/05/15 11:35:31;;;;;;;8.45;2.22;;;;;;;;;;5050791;28;20097;-55
2022/05/15 11:37:57;;;;;;;5.20;2.15;;;;;;;;;;5050831;28;20063;-55
2022/05/15 11:40:29;;;;;;;5.07;2.25;;;;;;;;;;5049952;28;20570;-54
2022/05/15 11:42:56;;;;;;;5.82;1.40;;;;;;;;;;5049826;28;20121;-53
2022/05/15 11:45:29;;;;;;;1.80;1.35;;;;;;;;;;5050744;28;20044;-53
2022/05/15 11:47:59;;;;;;;6.65;1.80;;;;;;;;;;5051027;28;20028;-53
2022/05/15 11:50:30;;;;;;;5.25;1.73;;;;;;;;;;5050590;28;20454;-53
2022/05/15 11:52:56;;;;;;;5.60;1.27;;;;;;;;;;5048541;28;20036;-53
2022/05/15 11:55:31;;;;;;;3.70;2.00;;;;;;;;;;5024944;28;20406;-53
2022/05/15 11:58:09;;;;;;;4.90;1.40;;;;;;;;;;5050601;28;20032;-54
2022/05/15 12:00:39;;;;;;;3.65;1.52;;;;;;;;;;5050575;28;20028;-54
2022/05/15 12:03:24;;;;;;;3.33;1.50;;;;;;;;;;5050246;28;20036;-54
2022/05/15 12:06:05;;;;;;;4.90;1.10;;;;;;;;;;5050377;28;20262;-55
2022/05/15 12:08:35;;;;;;;3.63;0.82;;;;;;;;;;5050340;28;20571;-52
2022/05/15 12:11:19;;;;;;;5.45;1.40;;;;;;;;;;5048535;28;20080;-53
2022/05/15 12:13:46;;;;;;;24.92;16.77;;;;;;;;;;5050676;28;20028;-52
2022/05/15 12:16:22;;;;;;;39.75;25.25;;;;;;;;;;5050274;28;20024;-53
2022/05/15 12:18:53;;;;;;;21.42;13.18;;;;;;;;;;5047989;28;20028;-55
2022/05/15 12:21:23;;;;;;;17.88;11.32;;;;;;;;;;5050370;28;20035;-55
2022/05/15 12:26:34;;;;;;;9.57;5.93;;;;;;;;;;5050048;28;20044;-55
2022/05/15 12:29:18;;;;;;;6.28;3.13;;;;;;;;;;5050809;28;20020;-53
2022/05/15 12:31:45;;;;;;;7.75;3.30;;;;;;;;;;5049362;28;20040;-54
2022/05/15 12:34:32;;;;;;;15.02;9.75;;;;;;;;;;5050000;28;20017;-54
2022/05/15 12:37:10;;;;;;;8.05;5.00;;;;;;;;;;5050359;28;20039;-53
2022/05/15 12:39:38;;;;;;;34.40;23.92;;;;;;;;;;5049708;28;20036;-52
2022/05/15 12:42:21;;;;;;;6.95;4.82;;;;;;;;;;5047773;28;20040;-52
2022/05/15 12:44:47;;;;;;;6.00;3.88;;;;;;;;;;5049735;28;20115;-53
2022/05/15 12:47:21;;;;;;;12.68;8.82;;;;;;;;;;5049135;28;20535;-52
2022/05/15 12:49:47;;;;;;;16.60;10.57;;;;;;;;;;5049990;28;20086;-54
2022/05/15 12:52:18;;;;;;;14.68;9.65;;;;;;;;;;5049847;28;20025;-53
2022/05/15 12:54:46;;;;;;;8.48;5.38;;;;;;;;;;5047390;28;20021;-52
2022/05/15 12:57:16;;;;;;;8.32;4.85;;;;;;;;;;5048973;28;20022;-52
2022/05/15 12:59:45;;;;;;;6.18;3.75;;;;;;;;;;5049336;28;20447;-53
2022/05/15 13:02:14;;;;;;;13.30;7.25;;;;;;;;;;5049675;28;20021;-52
2022/05/15 13:04:45;;;;;;;9.18;3.17;;;;;;;;;;5049616;28;20036;-52
2022/05/15 13:07:11;;;;;;;5.13;3.15;;;;;;;;;;5049276;28;20431;-53
2022/05/15 13:09:39;;;;;;;5.18;2.83;;;;;;;;;;5048680;28;20410;-52
2022/05/15 13:12:07;;;;;;;8.27;2.88;;;;;;;;;;5049358;28;20102;-51
2022/05/15 13:14:41;;;;;;;4.53;2.00;;;;;;;;;;5048797;28;20029;-52
2022/05/15 13:17:10;;;;;;;4.88;2.50;;;;;;;;;;5048315;28;20415;-53
2022/05/15 13:19:47;;;;;;;3.67;1.05;;;;;;;;;;5047450;28;20596;-51
2022/05/15 13:22:15;;;;;;;2.10;1.45;;;;;;;;;;5048363;28;20066;-51
2022/05/15 13:24:42;;;;;;;5.85;1.70;;;;;;;;;;5048673;28;20840;-51
2022/05/15 13:27:08;;;;;;;2.30;1.27;;;;;;;;;;5048018;28;20416;-52
2022/05/15 13:29:36;;;;;;;2.97;1.10;;;;;;;;;;5049505;28;20032;-51
2022/05/15 13:32:03;;;;;;;2.45;1.38;;;;;;;;;;5049522;28;20016;-53
2022/05/15 13:34:29;;;;;;;5.25;1.27;;;;;;;;;;5049019;28;20025;-52
2022/05/15 13:36:58;;;;;;;2.47;1.20;;;;;;;;;;5049214;28;20666;-55
2022/05/15 13:45:04;;;;;;;6.68;1.00;;;;;;;;;;5048885;28;20488;-52
2022/05/15 13:47:30;;;;;;;2.55;1.00;;;;;;;;;;5046275;28;20538;-51
2022/05/15 13:49:56;;;;;;;2.03;0.93;;;;;;;;;;5048968;28;20374;-51
2022/05/15 13:52:22;;;;;;;3.75;1.20;;;;;;;;;;5048837;28;20025;-51
2022/05/15 13:54:48;;;;;;;3.10;0.90;;;;;;;;;;5048671;28;20051;-52
2022/05/15 13:57:14;;;;;;;2.45;1.10;;;;;;;;;;5049084;28;20119;-51
2022/05/15 13:59:58;;;;;;;6.10;0.93;;;;;;;;;;5048252;28;20037;-51
2022/05/15 14:02:26;;;;;;;1.58;0.88;;;;;;;;;;5048542;28;20472;-51
2022/05/15 14:04:59;;;;;;;3.38;1.23;;;;;;;;;;5046351;28;20078;-51
2022/05/15 14:07:31;;;;;;;4.70;1.10;;;;;;;;;;5048924;28;20493;-53
2022/05/15 14:09:59;;;;;;;4.32;1.13;;;;;;;;;;5048519;28;20087;-51
2022/05/15 14:12:43;;;;;;;6.25;1.83;;;;;;;;;;5046201;28;20021;-51
2022/05/15 14:15:30;;;;;;;8.80;5.47;;;;;;;;;;5049062;28;20131;-52
2022/05/15 14:17:58;;;;;;;12.30;8.80;;;;;;;;;;5047171;28;20581;-53
2022/05/15 14:20:26;;;;;;;4.65;2.65;;;;;;;;;;5047218;28;20037;-50
2022/05/15 14:22:53;;;;;;;4.80;2.13;;;;;;;;;;5048692;28;20905;-51
2022/05/15 14:25:20;;;;;;;11.35;4.38;;;;;;;;;;5048594;28;20032;-50
2022/05/15 14:27:46;;;;;;;10.80;3.60;;;;;;;;;;5022991;28;20413;-53
2022/05/15 14:30:12;;;;;;;6.88;1.88;;;;;;;;;;5048550;28;20884;-52
2022/05/15 14:32:38;;;;;;;3.58;2.15;;;;;;;;;;5048659;28;20028;-51
2022/05/15 14:35:07;;;;;;;4.38;1.60;;;;;;;;;;5048287;28;20028;-51
2022/05/15 14:37:33;;;;;;;1.77;1.20;;;;;;;;;;5044253;28;20027;-53
2022/05/15 14:39:59;;;;;;;2.83;1.38;;;;;;;;;;5048153;28;20875;-51
2022/05/15 14:42:29;;;;;;;5.72;1.35;;;;;;;;;;5048536;28;20080;-52
2022/05/15 14:44:57;;;;;;;4.50;2.20;;;;;;;;;;5048017;28;20043;-51
2022/05/15 14:47:26;;;;;;;7.20;3.80;;;;;;;;;;5045468;28;20114;-52
2022/05/15 14:49:54;;;;;;;5.10;1.42;;;;;;;;;;5045838;28;20056;-52
2022/05/15 14:52:22;;;;;;;5.93;3.85;;;;;;;;;;5048009;28;20141;-52
2022/05/15 14:54:48;;;;;;;4.70;2.30;;;;;;;;;;5049989;28;20077;-51
2022/05/15 14:57:14;;;;;;;5.13;2.50;;;;;;;;;;5051789;28;20506;-50
2022/05/15 14:59:42;;;;;;;5.07;1.90;;;;;;;;;;5050157;28;20140;-52
2022/05/15 15:02:09;;;;;;;5.15;1.90;;;;;;;;;;5049272;28;20552;-51
2022/05/15 15:04:35;;;;;;;3.00;1.77;;;;;;;;;;5052526;28;20025;-52
2022/05/15 15:07:04;;;;;;;2.03;1.55;;;;;;;;;;5051634;28;20112;-51
2022/05/15 15:09:32;;;;;;;4.55;1.40;;;;;;;;;;5051700;28;20170;-52
2022/05/15 15:11:58;;;;;;;6.22;2.10;;;;;;;;;;5051372;28;20079;-52
2022/05/15 15:14:24;;;;;;;4.18;1.50;;;;;;;;;;5051328;28;20027;-51
2022/05/15 15:16:51;;;;;;;9.82;6.95;;;;;;;;;;5050058;28;20049;-54
2022/05/15 15:19:19;;;;;;;28.85;21.30;;;;;;;;;;5037028;28;20040;-51